createdAt,value
2023-04-10T00:00:39.529Z,4.67
2023-04-10T00:03:07.139Z,4.67
2023-04-10T00:05:34.224Z,4.85
2023-04-10T00:08:01.449Z,4.72
2023-04-10T00:10:30.672Z,4.61
2023-04-10T00:12:58.111Z,4.54
2023-04-10T00:15:25.383Z,4.54
2023-04-10T00:17:55.523Z,4.46
2023-04-10T00:20:23.531Z,4.46
2023-04-10T00:22:50.634Z,4.32
2023-04-10T00:25:17.949Z,4.31
2023-04-10T00:27:44.885Z,4.43
2023-04-10T00:30:11.923Z,4.52
2023-04-10T00:32:38.926Z,4.58
2023-04-10T00:35:06.316Z,4.55
2023-04-10T00:37:33.251Z,4.36
2023-04-10T00:40:00.758Z,4.27
2023-04-10T00:42:27.683Z,4.21
2023-04-10T00:44:54.717Z,4.40
2023-04-10T00:47:22.224Z,4.26
2023-04-10T00:49:49.332Z,4.23
2023-04-10T00:52:16.486Z,4.21
2023-04-10T00:54:43.761Z,4.35
2023-04-10T00:57:11.712Z,4.12
2023-04-10T00:59:38.830Z,4.19
2023-04-10T01:02:05.850Z,4.18
2023-04-10T01:04:34.437Z,4.05
2023-04-10T01:07:07.648Z,4.13
2023-04-10T01:09:53.010Z,4.09
2023-04-10T01:12:25.577Z,4.00
2023-04-10T01:15:04.652Z,4.07
2023-04-10T01:18:04.048Z,4.06
2023-04-10T01:20:38.691Z,4.13
2023-04-10T01:23:42.730Z,4.12
2023-04-10T01:26:12.032Z,4.07
2023-04-10T01:29:03.873Z,4.06
2023-04-10T01:32:01.111Z,3.90
2023-04-10T01:34:52.005Z,3.79
2023-04-10T01:37:27.967Z,3.75
2023-04-10T01:40:01.420Z,3.85
2023-04-10T01:42:32.995Z,3.87
2023-04-10T01:45:02.221Z,3.70
2023-04-10T01:47:30.475Z,3.71
2023-04-10T01:49:58.802Z,3.81
2023-04-10T01:52:28.152Z,4.04
2023-04-10T01:55:14.784Z,4.01
2023-04-10T01:57:52.014Z,3.74
2023-04-10T02:00:19.531Z,3.62
2023-04-10T02:02:46.806Z,3.54
2023-04-10T02:05:16.727Z,3.43
2023-04-10T02:08:15.764Z,3.55
2023-04-10T02:10:53.010Z,3.49
2023-04-10T02:13:22.415Z,3.41
2023-04-10T02:15:51.883Z,3.33
2023-04-10T02:18:21.463Z,3.23
2023-04-10T02:20:49.229Z,3.17
2023-04-10T02:23:17.791Z,3.14
2023-04-10T02:25:45.284Z,3.08
2023-04-10T02:28:12.249Z,3.01
2023-04-10T02:30:39.609Z,2.99
2023-04-10T02:33:07.716Z,2.91
2023-04-10T02:35:35.108Z,2.96
2023-04-10T02:38:03.692Z,2.98
2023-04-10T02:40:31.964Z,2.92
2023-04-10T02:43:10.463Z,3.02
2023-04-10T02:45:37.382Z,2.99
2023-04-10T02:48:06.702Z,3.16
2023-04-10T02:50:34.565Z,2.85
2023-04-10T02:53:03.702Z,3.00
2023-04-10T02:55:30.767Z,2.78
2023-04-10T02:57:57.809Z,2.87
2023-04-10T03:00:24.803Z,3.02
2023-04-10T03:03:13.363Z,2.90
2023-04-10T03:05:49.648Z,3.11
2023-04-10T03:08:19.776Z,2.91
2023-04-10T03:10:48.925Z,2.96
2023-04-10T03:13:16.474Z,2.80
2023-04-10T03:15:43.737Z,2.77
2023-04-10T03:18:10.959Z,2.70
2023-04-10T03:20:39.845Z,2.68
2023-04-10T03:23:07.431Z,2.74
2023-04-10T03:25:34.974Z,2.83
2023-04-10T03:28:03.638Z,2.71
2023-04-10T03:30:31.515Z,2.72
2023-04-10T03:32:58.359Z,2.59
2023-04-10T03:35:25.376Z,2.77
2023-04-10T03:37:52.318Z,2.70
2023-04-10T03:40:20.783Z,2.76
2023-04-10T03:42:47.711Z,2.90
2023-04-10T03:45:14.915Z,2.93
2023-04-10T03:47:41.810Z,2.90
2023-04-10T03:50:10.911Z,2.87
2023-04-10T03:52:46.346Z,2.77
2023-04-10T03:55:19.752Z,2.56
2023-04-10T03:57:48.957Z,2.58
2023-04-10T04:00:18.288Z,2.54
2023-04-10T04:02:51.091Z,2.52
2023-04-10T04:05:36.886Z,2.59
2023-04-10T04:08:24.087Z,2.52
2023-04-10T04:11:19.384Z,2.46
2023-04-10T04:14:02.591Z,2.64
2023-04-10T04:16:38.398Z,2.67
2023-04-10T04:19:30.376Z,2.45
2023-04-10T04:22:08.724Z,2.35
2023-04-10T04:24:54.333Z,2.42
2023-04-10T04:27:38.275Z,2.67
2023-04-10T04:30:16.228Z,2.87
2023-04-10T04:33:09.412Z,2.95
2023-04-10T04:35:54.718Z,2.93
2023-04-10T04:38:42.390Z,2.72
2023-04-10T04:41:27.943Z,2.75
2023-04-10T04:44:12.645Z,2.96
2023-04-10T04:47:02.460Z,3.51
2023-04-10T04:50:01.574Z,3.95
2023-04-10T04:53:08.042Z,4.39
2023-04-10T04:55:50.075Z,4.47
2023-04-10T04:58:43.364Z,5.05
2023-04-10T05:01:17.715Z,5.58
2023-04-10T05:04:04.221Z,5.95
2023-04-10T05:06:54.514Z,6.58
2023-04-10T05:09:53.742Z,6.86
2023-04-10T05:12:42.200Z,7.11
2023-04-10T05:15:41.440Z,7.35
2023-04-10T05:18:31.469Z,6.79
2023-04-10T05:21:24.562Z,6.15
2023-04-10T05:24:14.494Z,5.55
2023-04-10T05:27:02.449Z,5.04
2023-04-10T05:29:44.265Z,4.90
2023-04-10T05:32:37.644Z,4.98
2023-04-10T05:35:43.002Z,5.01
2023-04-10T05:38:33.028Z,5.00
2023-04-10T05:41:13.643Z,4.90
2023-04-10T05:43:59.725Z,5.05
2023-04-10T05:46:45.167Z,5.25
2023-04-10T05:49:34.635Z,5.42
2023-04-10T05:52:20.157Z,5.67
2023-04-10T05:55:04.108Z,5.78
2023-04-10T05:57:51.812Z,6.00
2023-04-10T06:00:25.687Z,6.20
2023-04-10T06:03:21.823Z,6.23
2023-04-10T06:05:54.447Z,6.39
2023-04-10T06:08:23.029Z,6.61
2023-04-10T06:10:50.269Z,6.75
2023-04-10T06:13:17.484Z,6.66
2023-04-10T06:15:44.897Z,6.81
2023-04-10T06:18:16.497Z,7.00
2023-04-10T06:20:43.889Z,7.15
2023-04-10T06:23:12.607Z,7.30
2023-04-10T06:25:39.738Z,7.53
2023-04-10T06:28:06.786Z,7.94
2023-04-10T06:30:35.006Z,7.91
2023-04-10T06:33:02.242Z,8.00
2023-04-10T06:35:30.147Z,7.90
2023-04-10T06:37:57.121Z,7.95
2023-04-10T06:40:24.680Z,8.09
2023-04-10T06:42:51.565Z,8.33
2023-04-10T06:45:28.103Z,8.43
2023-04-10T06:47:55.213Z,8.58
2023-04-10T06:50:22.309Z,8.72
2023-04-10T06:52:49.400Z,8.94
2023-04-10T06:55:17.357Z,9.27
2023-04-10T06:57:44.343Z,9.26
2023-04-10T07:00:11.824Z,9.29
2023-04-10T07:02:38.831Z,9.35
2023-04-10T07:05:06.051Z,8.97
2023-04-10T07:07:33.217Z,9.20
2023-04-10T07:10:00.172Z,9.15
2023-04-10T07:12:27.161Z,9.09
2023-04-10T07:14:54.417Z,9.07
2023-04-10T07:17:22.080Z,9.07
2023-04-10T07:19:49.036Z,9.39
2023-04-10T07:22:16.114Z,9.39
2023-04-10T07:24:43.283Z,9.40
2023-04-10T07:27:10.318Z,9.40
2023-04-10T07:29:37.180Z,9.56
2023-04-10T07:32:04.493Z,9.59
2023-04-10T07:34:32.661Z,10.10
2023-04-10T07:36:59.725Z,10.41
2023-04-10T07:39:26.868Z,10.52
2023-04-10T07:41:54.931Z,10.22
2023-04-10T07:44:22.012Z,10.52
2023-04-10T07:46:48.958Z,10.33
2023-04-10T07:49:15.885Z,10.27
2023-04-10T07:51:42.821Z,10.18
2023-04-10T07:54:09.806Z,10.40
2023-04-10T07:56:36.767Z,10.66
2023-04-10T07:59:04.042Z,11.04
2023-04-10T08:01:31.148Z,11.03
2023-04-10T08:03:58.242Z,11.57
2023-04-10T08:06:26.103Z,12.23
2023-04-10T08:08:53.338Z,11.60
2023-04-10T08:11:28.073Z,11.66
2023-04-10T08:14:02.071Z,11.42
2023-04-10T08:16:31.352Z,11.61
2023-04-10T08:18:59.338Z,11.61
2023-04-10T08:21:27.601Z,11.33
2023-04-10T08:23:55.998Z,10.78
2023-04-10T08:26:23.724Z,11.37
2023-04-10T08:28:52.894Z,11.61
2023-04-10T08:31:21.974Z,11.38
2023-04-10T08:33:49.666Z,11.34
2023-04-10T08:36:19.785Z,11.32
2023-04-10T08:38:48.147Z,11.39
2023-04-10T08:41:17.540Z,10.94
2023-04-10T08:43:46.495Z,10.78
2023-04-10T08:46:15.253Z,10.89
2023-04-10T08:48:55.507Z,10.80
2023-04-10T08:51:26.107Z,10.68
2023-04-10T08:53:59.398Z,10.59
2023-04-10T08:56:27.131Z,10.52
2023-04-10T08:58:54.595Z,10.15
2023-04-10T09:01:21.967Z,10.40
2023-04-10T09:03:49.259Z,10.67
2023-04-10T09:06:16.637Z,10.73
2023-04-10T09:08:43.616Z,10.81
2023-04-10T09:11:13.653Z,11.12
2023-04-10T09:13:40.940Z,11.56
2023-04-10T09:16:09.161Z,11.81
2023-04-10T09:18:43.234Z,11.89
2023-04-10T09:21:13.293Z,11.41
2023-04-10T09:23:41.375Z,11.20
2023-04-10T09:26:25.838Z,10.81
2023-04-10T09:29:08.288Z,10.95
2023-04-10T09:31:37.731Z,11.51
2023-04-10T09:34:18.276Z,11.97
2023-04-10T09:37:01.716Z,12.22
2023-04-10T09:39:35.651Z,12.35
2023-04-10T09:42:03.064Z,11.65
2023-04-10T09:44:35.990Z,11.73
2023-04-10T09:47:14.816Z,11.53
2023-04-10T09:49:53.053Z,11.41
2023-04-10T09:52:23.482Z,11.73
2023-04-10T09:54:50.612Z,12.05
2023-04-10T09:57:19.832Z,12.54
2023-04-10T09:59:55.129Z,12.86
2023-04-10T10:02:24.674Z,12.54
2023-04-10T10:04:53.152Z,12.79
2023-04-10T10:07:22.936Z,12.67
2023-04-10T10:09:52.016Z,12.25
2023-04-10T10:12:38.264Z,12.25
2023-04-10T10:15:19.895Z,12.46
2023-04-10T10:17:52.101Z,12.78
2023-04-10T10:20:22.626Z,12.46
2023-04-10T10:22:50.607Z,12.41
2023-04-10T10:25:20.136Z,12.26
2023-04-10T10:27:50.276Z,12.26
2023-04-10T10:30:29.336Z,12.68
2023-04-10T10:33:00.121Z,13.27
2023-04-10T10:35:29.937Z,13.57
2023-04-10T10:37:59.815Z,13.78
2023-04-10T10:41:07.987Z,13.91
2023-04-10T10:43:58.072Z,13.25
2023-04-10T10:46:45.035Z,13.58
2023-04-10T10:49:12.060Z,13.57
2023-04-10T10:51:46.925Z,13.75
2023-04-10T10:54:56.993Z,13.78
2023-04-10T10:57:55.969Z,13.48
2023-04-10T11:00:25.142Z,13.50
2023-04-10T11:03:13.050Z,13.58
2023-04-10T11:05:49.246Z,13.50
2023-04-10T11:08:16.221Z,13.77
2023-04-10T11:11:04.115Z,14.06
2023-04-10T11:13:31.676Z,14.47
2023-04-10T11:16:00.194Z,14.94
2023-04-10T11:18:45.258Z,14.82
2023-04-10T11:21:22.577Z,14.26
2023-04-10T11:23:53.063Z,14.51
2023-04-10T11:26:43.833Z,14.43
2023-04-10T11:29:14.495Z,14.12
2023-04-10T11:31:41.522Z,14.05
2023-04-10T11:34:10.838Z,13.30
2023-04-10T11:36:42.795Z,13.42
2023-04-10T11:39:14.689Z,14.01
2023-04-10T11:41:52.287Z,13.98
2023-04-10T11:44:28.105Z,14.73
2023-04-10T11:46:55.242Z,15.31
2023-04-10T11:49:24.865Z,14.86
2023-04-10T11:51:52.596Z,14.67
2023-04-10T11:54:21.465Z,14.54
2023-04-10T11:57:10.118Z,14.69
2023-04-10T11:59:37.175Z,14.52
2023-04-10T12:02:15.278Z,14.44
2023-04-10T12:04:44.390Z,14.66
2023-04-10T12:07:11.923Z,14.30
2023-04-10T12:09:39.269Z,14.03
2023-04-10T12:12:08.023Z,13.92
2023-04-10T12:14:41.869Z,13.74
2023-04-10T12:17:11.404Z,14.07
2023-04-10T12:19:39.250Z,14.31
2023-04-10T12:22:06.877Z,14.59
2023-04-10T12:24:44.002Z,14.92
2023-04-10T12:27:26.760Z,14.99
2023-04-10T12:29:56.176Z,14.80
2023-04-10T12:32:25.956Z,15.07
2023-04-10T12:35:01.640Z,14.92
2023-04-10T12:37:50.908Z,14.69
2023-04-10T12:40:18.798Z,14.71
2023-04-10T12:42:45.959Z,15.22
2023-04-10T12:45:14.945Z,15.79
2023-04-10T12:47:47.341Z,16.19
2023-04-10T12:50:16.617Z,16.47
2023-04-10T12:52:45.733Z,16.30
2023-04-10T12:55:20.180Z,16.79
2023-04-10T12:57:49.827Z,16.72
2023-04-10T13:00:18.747Z,16.58
2023-04-10T13:02:47.266Z,16.26
2023-04-10T13:05:15.168Z,15.87
2023-04-10T13:07:43.123Z,15.34
2023-04-10T13:10:12.308Z,14.38
2023-04-10T13:12:40.289Z,13.92
2023-04-10T13:15:08.129Z,14.03
2023-04-10T13:17:35.579Z,14.36
2023-04-10T13:20:02.755Z,14.62
2023-04-10T13:22:29.694Z,14.77
2023-04-10T13:24:56.650Z,14.83
2023-04-10T13:27:23.571Z,15.41
2023-04-10T13:29:50.649Z,15.87
2023-04-10T13:32:17.672Z,16.22
2023-04-10T13:34:44.596Z,16.97
2023-04-10T13:37:13.387Z,16.64
2023-04-10T13:39:41.949Z,16.13
2023-04-10T13:42:08.843Z,15.25
2023-04-10T13:44:35.883Z,14.73
2023-04-10T13:47:02.847Z,14.46
2023-04-10T13:49:30.656Z,14.38
2023-04-10T13:51:58.103Z,14.38
2023-04-10T13:54:25.121Z,14.39
2023-04-10T13:56:52.078Z,14.64
2023-04-10T13:59:18.980Z,14.99
2023-04-10T14:01:46.136Z,15.52
2023-04-10T14:04:13.098Z,15.94
2023-04-10T14:06:40.736Z,16.39
2023-04-10T14:09:07.808Z,16.44
2023-04-10T14:11:34.754Z,16.45
2023-04-10T14:14:02.006Z,16.61
2023-04-10T14:16:29.207Z,17.10
2023-04-10T14:18:56.237Z,16.56
2023-04-10T14:21:23.384Z,15.90
2023-04-10T14:23:50.309Z,15.29
2023-04-10T14:26:17.288Z,15.23
2023-04-10T14:28:44.233Z,14.91
2023-04-10T14:31:12.442Z,14.85
2023-04-10T14:33:39.400Z,14.94
2023-04-10T14:36:06.929Z,15.19
2023-04-10T14:38:33.989Z,15.43
2023-04-10T14:41:00.911Z,15.87
2023-04-10T14:43:27.901Z,15.91
2023-04-10T14:45:54.828Z,16.26
2023-04-10T14:48:23.174Z,16.83
2023-04-10T14:50:50.203Z,16.89
2023-04-10T14:53:18.262Z,16.60
2023-04-10T14:55:45.137Z,16.32
2023-04-10T14:58:12.214Z,16.33
2023-04-10T15:00:40.596Z,16.11
2023-04-10T15:03:08.842Z,15.32
2023-04-10T15:05:36.106Z,15.01
2023-04-10T15:08:03.142Z,14.64
2023-04-10T15:10:31.023Z,14.52
2023-04-10T15:12:58.057Z,14.63
2023-04-10T15:15:25.178Z,14.75
2023-04-10T15:17:52.138Z,14.80
2023-04-10T15:20:19.217Z,14.86
2023-04-10T15:22:48.374Z,14.90
2023-04-10T15:25:15.534Z,14.82
2023-04-10T15:27:42.507Z,14.69
2023-04-10T15:30:09.797Z,14.51
2023-04-10T15:32:39.968Z,14.58
2023-04-10T15:35:07.565Z,14.66
2023-04-10T15:37:37.684Z,14.58
2023-04-10T15:40:06.500Z,14.75
2023-04-10T15:42:37.370Z,14.83
2023-04-10T15:45:04.833Z,14.99
2023-04-10T15:47:31.763Z,15.22
2023-04-10T15:49:59.402Z,15.21
2023-04-10T15:52:26.309Z,15.46
2023-04-10T15:54:53.486Z,15.50
2023-04-10T15:57:20.588Z,15.34
2023-04-10T15:59:47.565Z,15.18
2023-04-10T16:02:14.574Z,15.34
2023-04-10T16:04:41.758Z,15.34
2023-04-10T16:07:08.810Z,14.91
2023-04-10T16:09:35.842Z,14.67
2023-04-10T16:12:03.488Z,14.55
2023-04-10T16:14:30.459Z,14.52
2023-04-10T16:16:57.420Z,14.53
2023-04-10T16:19:24.361Z,14.54
2023-04-10T16:21:51.403Z,14.90
2023-04-10T16:24:18.556Z,15.64
2023-04-10T16:26:45.501Z,16.35
2023-04-10T16:29:12.520Z,15.95
2023-04-10T16:31:39.486Z,15.82
2023-04-10T16:34:06.548Z,16.44
2023-04-10T16:36:33.609Z,17.34
2023-04-10T16:39:00.540Z,18.29
2023-04-10T16:41:27.540Z,18.70
2023-04-10T16:43:54.553Z,17.88
2023-04-10T16:46:21.449Z,17.65
2023-04-10T16:48:48.571Z,17.29
2023-04-10T16:51:17.002Z,17.30
2023-04-10T16:53:44.427Z,15.99
2023-04-10T16:56:11.470Z,15.64
2023-04-10T16:58:38.881Z,15.39
2023-04-10T17:01:20.613Z,15.27
2023-04-10T17:03:48.719Z,15.69
2023-04-10T17:06:16.471Z,16.08
2023-04-10T17:08:44.377Z,16.16
2023-04-10T17:11:12.898Z,16.05
2023-04-10T17:13:42.656Z,16.01
2023-04-10T17:16:10.282Z,15.90
2023-04-10T17:18:38.353Z,15.49
2023-04-10T17:21:05.738Z,15.25
2023-04-10T17:23:32.787Z,14.79
2023-04-10T17:25:59.872Z,14.27
2023-04-10T17:28:26.803Z,13.88
2023-04-10T17:30:53.777Z,13.59
2023-04-10T17:33:21.977Z,13.45
2023-04-10T17:35:50.838Z,13.12
2023-04-10T17:38:17.895Z,12.97
2023-04-10T17:40:44.811Z,12.72
2023-04-10T17:43:11.701Z,12.49
2023-04-10T17:45:39.458Z,12.48
2023-04-10T17:48:07.118Z,12.35
2023-04-10T17:50:34.231Z,12.44
2023-04-10T17:53:01.259Z,12.50
2023-04-10T17:55:28.507Z,12.43
2023-04-10T17:57:57.658Z,12.19
2023-04-10T18:00:24.904Z,11.98
2023-04-10T18:02:58.168Z,11.89
2023-04-10T18:05:26.485Z,11.69
2023-04-10T18:07:53.380Z,11.52
2023-04-10T18:10:20.444Z,11.36
2023-04-10T18:12:47.375Z,11.42
2023-04-10T18:15:17.177Z,11.33
2023-04-10T18:17:44.104Z,11.17
2023-04-10T18:20:11.337Z,11.02
2023-04-10T18:22:39.394Z,10.90
2023-04-10T18:25:07.186Z,10.76
2023-04-10T18:27:36.121Z,10.74
2023-04-10T18:30:03.271Z,10.86
2023-04-10T18:32:30.290Z,10.77
2023-04-10T18:34:57.321Z,10.73
2023-04-10T18:37:24.349Z,10.66
2023-04-10T18:39:51.343Z,10.53
2023-04-10T18:42:18.312Z,10.45
2023-04-10T18:44:45.309Z,10.51
2023-04-10T18:47:12.406Z,10.46
2023-04-10T18:49:39.404Z,10.43
2023-04-10T18:52:06.421Z,10.36
2023-04-10T18:54:36.298Z,10.24
2023-04-10T18:57:03.278Z,10.11
2023-04-10T18:59:30.782Z,10.21
2023-04-10T19:01:57.851Z,10.21
2023-04-10T19:04:25.209Z,10.22
2023-04-10T19:06:52.327Z,10.31
2023-04-10T19:09:19.374Z,10.31
2023-04-10T19:11:46.588Z,10.28
2023-04-10T19:14:13.587Z,10.11
2023-04-10T19:16:40.658Z,9.96
2023-04-10T19:19:07.718Z,9.77
2023-04-10T19:21:34.772Z,9.87
2023-04-10T19:24:01.690Z,9.92
2023-04-10T19:26:28.734Z,9.86
2023-04-10T19:28:55.810Z,9.70
2023-04-10T19:31:24.154Z,9.51
2023-04-10T19:33:51.206Z,9.43
2023-04-10T19:36:19.363Z,9.31
2023-04-10T19:38:49.132Z,9.22
2023-04-10T19:41:16.373Z,9.13
2023-04-10T19:43:43.541Z,9.07
2023-04-10T19:46:18.166Z,9.10
2023-04-10T19:48:45.858Z,9.36
2023-04-10T19:51:13.443Z,9.29
2023-04-10T19:53:41.456Z,9.23
2023-04-10T19:56:08.627Z,9.22
2023-04-10T19:58:40.948Z,9.32
2023-04-10T20:01:09.321Z,9.38
2023-04-10T20:03:37.318Z,9.39
2023-04-10T20:06:07.557Z,9.15
2023-04-10T20:08:36.026Z,8.97
2023-04-10T20:11:06.890Z,8.73
2023-04-10T20:13:35.129Z,8.58
2023-04-10T20:16:02.390Z,8.47
2023-04-10T20:18:31.703Z,8.54
2023-04-10T20:20:58.712Z,8.53
2023-04-10T20:23:25.812Z,8.49
2023-04-10T20:25:52.820Z,8.35
2023-04-10T20:28:19.759Z,8.19
2023-04-10T20:30:46.759Z,8.06
2023-04-10T20:33:13.747Z,7.97
2023-04-10T20:35:40.831Z,7.91
2023-04-10T20:38:07.922Z,7.88
2023-04-10T20:40:36.074Z,7.81
2023-04-10T20:43:03.042Z,7.99
2023-04-10T20:45:30.036Z,7.97
2023-04-10T20:47:57.889Z,8.11
2023-04-10T20:50:24.966Z,8.20
2023-04-10T20:52:51.952Z,8.21
2023-04-10T20:55:19.176Z,8.25
2023-04-10T20:57:46.157Z,8.23
2023-04-10T21:00:13.782Z,8.19
2023-04-10T21:02:40.853Z,8.28
2023-04-10T21:05:08.387Z,8.22
2023-04-10T21:07:35.506Z,8.18
2023-04-10T21:10:02.534Z,8.17
2023-04-10T21:12:29.517Z,7.99
2023-04-10T21:14:56.542Z,7.89
2023-04-10T21:17:23.835Z,7.71
2023-04-10T21:19:50.818Z,7.58
2023-04-10T21:22:17.743Z,7.46
2023-04-10T21:24:44.787Z,7.67
2023-04-10T21:27:11.734Z,7.76
2023-04-10T21:29:38.735Z,7.80
2023-04-10T21:32:08.608Z,7.87
2023-04-10T21:34:36.088Z,7.79
2023-04-10T21:37:03.114Z,7.82
2023-04-10T21:39:31.631Z,7.77
2023-04-10T21:41:58.567Z,7.75
2023-04-10T21:44:25.780Z,7.79
2023-04-10T21:46:52.808Z,7.71
2023-04-10T21:49:19.897Z,7.66
2023-04-10T21:51:52.462Z,7.59
2023-04-10T21:54:20.391Z,7.68
2023-04-10T21:56:47.398Z,7.53
2023-04-10T21:59:17.533Z,7.41
2023-04-10T22:01:44.594Z,7.56
2023-04-10T22:04:14.755Z,7.54
2023-04-10T22:06:41.817Z,7.35
2023-04-10T22:09:09.575Z,7.29
2023-04-10T22:11:39.579Z,7.14
2023-04-10T22:16:38.515Z,6.93
2023-04-10T22:19:05.675Z,6.89
2023-04-10T22:22:21.106Z,6.89
2023-04-10T22:24:48.299Z,6.88
2023-04-10T22:27:15.428Z,6.83
2023-04-10T22:29:47.542Z,6.88
2023-04-10T22:32:17.329Z,6.89
2023-04-10T22:34:44.265Z,7.02
2023-04-10T22:37:11.249Z,7.06
2023-04-10T22:39:38.256Z,7.02
2023-04-10T22:42:05.396Z,6.98
2023-04-10T22:44:32.395Z,6.97
2023-04-10T22:46:59.403Z,6.88
2023-04-10T22:49:26.365Z,6.86
2023-04-10T22:51:53.344Z,6.88
2023-04-10T22:54:21.372Z,6.99
2023-04-10T22:56:49.126Z,7.04
2023-04-10T22:59:16.075Z,7.06
2023-04-10T23:01:43.130Z,7.23
2023-04-10T23:04:10.134Z,7.33
2023-04-10T23:06:37.246Z,7.19
2023-04-10T23:09:04.220Z,7.08
2023-04-10T23:11:31.177Z,7.12
2023-04-10T23:13:58.079Z,7.01
2023-04-10T23:16:25.143Z,6.93
2023-04-10T23:18:52.291Z,6.97
2023-04-10T23:21:19.899Z,6.72
2023-04-10T23:23:46.796Z,6.64
2023-04-10T23:26:13.762Z,6.73
2023-04-10T23:28:40.994Z,6.74
2023-04-10T23:31:09.268Z,6.76
2023-04-10T23:33:36.280Z,6.95
2023-04-10T23:36:03.428Z,6.90
2023-04-10T23:38:30.522Z,7.06
2023-04-10T23:40:57.569Z,6.93
2023-04-10T23:43:24.515Z,6.87
2023-04-10T23:45:51.412Z,6.89
2023-04-10T23:48:18.302Z,6.90
2023-04-10T23:50:45.314Z,6.76
2023-04-10T23:53:14.053Z,6.80
2023-04-10T23:55:42.542Z,6.64
2023-04-10T23:58:10.017Z,6.76
